sensor_id;sensor_type;location;lat;lon;timestamp;temperature;humidity
56538;DHT22;42435;53.292;6.000;2022-11-30T00:00:10;5.20;85.50
56538;DHT22;42435;53.292;6.000;2022-11-30T00:02:36;5.20;85.70
56538;DHT22;42435;53.292;6.000;2022-11-30T00:05:01;5.20;85.80
56538;DHT22;42435;53.292;6.000;2022-11-30T00:07:27;5.20;85.80
56538;DHT22;42435;53.292;6.000;2022-11-30T00:09:52;5.20;86.00
56538;DHT22;42435;53.292;6.000;2022-11-30T00:12:18;5.20;86.10
56538;DHT22;42435;53.292;6.000;2022-11-30T00:14:43;5.30;86.10
56538;DHT22;42435;53.292;6.000;2022-11-30T00:17:09;5.30;86.20
56538;DHT22;42435;53.292;6.000;2022-11-30T00:19:35;5.40;86.20
56538;DHT22;42435;53.292;6.000;2022-11-30T00:22:00;5.40;86.30
56538;DHT22;42435;53.292;6.000;2022-11-30T00:24:26;5.40;86.30
56538;DHT22;42435;53.292;6.000;2022-11-30T00:26:51;5.50;86.30
56538;DHT22;42435;53.292;6.000;2022-11-30T00:29:17;5.60;86.30
56538;DHT22;42435;53.292;6.000;2022-11-30T00:31:42;5.60;86.30
56538;DHT22;42435;53.292;6.000;2022-11-30T00:34:08;5.70;86.30
56538;DHT22;42435;53.292;6.000;2022-11-30T00:36:33;5.70;86.30
56538;DHT22;42435;53.292;6.000;2022-11-30T00:38:59;5.80;86.40
56538;DHT22;42435;53.292;6.000;2022-11-30T00:41:24;5.90;86.40
56538;DHT22;42435;53.292;6.000;2022-11-30T00:43:50;5.90;86.30
56538;DHT22;42435;53.292;6.000;2022-11-30T00:46:16;6.00;86.30
56538;DHT22;42435;53.292;6.000;2022-11-30T00:48:41;6.10;86.30
56538;DHT22;42435;53.292;6.000;2022-11-30T00:51:08;6.10;86.20
56538;DHT22;42435;53.292;6.000;2022-11-30T00:53:34;6.20;86.20
56538;DHT22;42435;53.292;6.000;2022-11-30T00:56:00;6.20;86.20
56538;DHT22;42435;53.292;6.000;2022-11-30T00:58:25;6.30;86.20
56538;DHT22;42435;53.292;6.000;2022-11-30T01:00:51;6.30;86.20
56538;DHT22;42435;53.292;6.000;2022-11-30T01:03:16;6.40;86.20
56538;DHT22;42435;53.292;6.000;2022-11-30T01:05:42;6.40;86.10
56538;DHT22;42435;53.292;6.000;2022-11-30T01:08:09;6.40;86.10
56538;DHT22;42435;53.292;6.000;2022-11-30T01:10:37;6.50;86.10
56538;DHT22;42435;53.292;6.000;2022-11-30T01:13:04;6.60;86.00
56538;DHT22;42435;53.292;6.000;2022-11-30T01:15:30;6.60;86.00
56538;DHT22;42435;53.292;6.000;2022-11-30T01:17:58;6.70;86.00
56538;DHT22;42435;53.292;6.000;2022-11-30T01:20:24;6.70;86.00
56538;DHT22;42435;53.292;6.000;2022-11-30T01:22:49;6.70;85.90
56538;DHT22;42435;53.292;6.000;2022-11-30T01:25:15;6.80;85.90
56538;DHT22;42435;53.292;6.000;2022-11-30T01:27:41;6.80;85.90
56538;DHT22;42435;53.292;6.000;2022-11-30T01:30:07;6.90;85.90
56538;DHT22;42435;53.292;6.000;2022-11-30T01:32:32;6.90;85.80
56538;DHT22;42435;53.292;6.000;2022-11-30T01:34:58;6.90;85.80
56538;DHT22;42435;53.292;6.000;2022-11-30T01:37:23;7.00;85.70
56538;DHT22;42435;53.292;6.000;2022-11-30T01:39:49;7.00;85.70
56538;DHT22;42435;53.292;6.000;2022-11-30T01:42:17;7.10;85.60
56538;DHT22;42435;53.292;6.000;2022-11-30T01:44:52;7.10;85.50
56538;DHT22;42435;53.292;6.000;2022-11-30T01:47:21;7.10;85.60
56538;DHT22;42435;53.292;6.000;2022-11-30T01:49:56;7.10;85.50
56538;DHT22;42435;53.292;6.000;2022-11-30T01:52:26;7.10;85.40
56538;DHT22;42435;53.292;6.000;2022-11-30T01:54:59;7.10;85.30
56538;DHT22;42435;53.292;6.000;2022-11-30T01:57:37;7.10;85.30
56538;DHT22;42435;53.292;6.000;2022-11-30T02:00:11;7.10;85.30
56538;DHT22;42435;53.292;6.000;2022-11-30T02:05:28;7.10;85.30
56538;DHT22;42435;53.292;6.000;2022-11-30T02:07:54;7.00;85.20
56538;DHT22;42435;53.292;6.000;2022-11-30T02:10:29;7.10;85.20
56538;DHT22;42435;53.292;6.000;2022-11-30T02:13:22;7.00;85.20
56538;DHT22;42435;53.292;6.000;2022-11-30T02:24:45;6.80;85.00
56538;DHT22;42435;53.292;6.000;2022-11-30T02:27:32;6.80;85.00
56538;DHT22;42435;53.292;6.000;2022-11-30T02:30:06;6.70;84.90
56538;DHT22;42435;53.292;6.000;2022-11-30T02:32:39;6.70;84.80
56538;DHT22;42435;53.292;6.000;2022-11-30T02:35:08;6.60;84.80
56538;DHT22;42435;53.292;6.000;2022-11-30T02:37:34;6.50;84.80
56538;DHT22;42435;53.292;6.000;2022-11-30T02:40:09;6.50;84.80
56538;DHT22;42435;53.292;6.000;2022-11-30T02:42:37;6.40;84.90
56538;DHT22;42435;53.292;6.000;2022-11-30T02:45:03;6.30;84.90
56538;DHT22;42435;53.292;6.000;2022-11-30T02:47:50;6.30;84.90
56538;DHT22;42435;53.292;6.000;2022-11-30T02:50:22;6.20;85.00
56538;DHT22;42435;53.292;6.000;2022-11-30T02:52:50;6.10;84.90
56538;DHT22;42435;53.292;6.000;2022-11-30T02:55:17;6.00;85.00
56538;DHT22;42435;53.292;6.000;2022-11-30T02:57:44;6.00;85.00
56538;DHT22;42435;53.292;6.000;2022-11-30T03:00:10;6.00;85.00
56538;DHT22;42435;53.292;6.000;2022-11-30T03:02:37;5.90;84.90
56538;DHT22;42435;53.292;6.000;2022-11-30T03:05:03;5.90;84.90
56538;DHT22;42435;53.292;6.000;2022-11-30T03:07:29;5.80;84.90
56538;DHT22;42435;53.292;6.000;2022-11-30T03:09:55;5.70;84.80
56538;DHT22;42435;53.292;6.000;2022-11-30T03:12:20;5.60;84.80
56538;DHT22;42435;53.292;6.000;2022-11-30T03:14:46;5.60;84.90
56538;DHT22;42435;53.292;6.000;2022-11-30T03:17:12;5.50;84.90
56538;DHT22;42435;53.292;6.000;2022-11-30T03:19:37;5.40;84.80
56538;DHT22;42435;53.292;6.000;2022-11-30T03:22:03;5.40;84.80
56538;DHT22;42435;53.292;6.000;2022-11-30T03:24:28;5.30;84.90
56538;DHT22;42435;53.292;6.000;2022-11-30T03:26:54;5.20;85.00
56538;DHT22;42435;53.292;6.000;2022-11-30T03:29:20;5.20;85.00
56538;DHT22;42435;53.292;6.000;2022-11-30T03:31:46;5.20;85.10
56538;DHT22;42435;53.292;6.000;2022-11-30T03:34:11;5.10;85.10
56538;DHT22;42435;53.292;6.000;2022-11-30T03:36:37;5.10;85.10
56538;DHT22;42435;53.292;6.000;2022-11-30T03:39:02;5.00;85.10
56538;DHT22;42435;53.292;6.000;2022-11-30T03:41:28;5.00;85.20
56538;DHT22;42435;53.292;6.000;2022-11-30T03:43:54;5.00;85.20
56538;DHT22;42435;53.292;6.000;2022-11-30T03:46:20;4.90;85.20
56538;DHT22;42435;53.292;6.000;2022-11-30T03:48:46;4.90;85.30
56538;DHT22;42435;53.292;6.000;2022-11-30T03:51:12;4.90;85.20
56538;DHT22;42435;53.292;6.000;2022-11-30T03:53:38;4.80;85.10
56538;DHT22;42435;53.292;6.000;2022-11-30T03:56:06;4.80;85.10
56538;DHT22;42435;53.292;6.000;2022-11-30T03:58:32;4.80;85.10
56538;DHT22;42435;53.292;6.000;2022-11-30T04:03:30;4.70;85.10
56538;DHT22;42435;53.292;6.000;2022-11-30T04:05:56;4.70;85.20
56538;DHT22;42435;53.292;6.000;2022-11-30T04:08:22;4.70;85.30
56538;DHT22;42435;53.292;6.000;2022-11-30T04:10:52;4.70;85.40
56538;DHT22;42435;53.292;6.000;2022-11-30T04:13:18;4.70;85.40
56538;DHT22;42435;53.292;6.000;2022-11-30T04:15:48;4.70;85.50
56538;DHT22;42435;53.292;6.000;2022-11-30T04:18:14;4.60;85.50
56538;DHT22;42435;53.292;6.000;2022-11-30T04:20:40;4.60;85.50
56538;DHT22;42435;53.292;6.000;2022-11-30T04:23:07;4.60;85.50
56538;DHT22;42435;53.292;6.000;2022-11-30T04:25:33;4.60;85.60
56538;DHT22;42435;53.292;6.000;2022-11-30T04:27:58;4.60;85.60
56538;DHT22;42435;53.292;6.000;2022-11-30T04:30:24;4.60;85.70
56538;DHT22;42435;53.292;6.000;2022-11-30T04:32:49;4.60;85.70
56538;DHT22;42435;53.292;6.000;2022-11-30T04:35:15;4.60;85.70
56538;DHT22;42435;53.292;6.000;2022-11-30T04:37:41;4.60;85.70
56538;DHT22;42435;53.292;6.000;2022-11-30T04:40:07;4.60;85.70
56538;DHT22;42435;53.292;6.000;2022-11-30T04:42:32;4.60;85.80
56538;DHT22;42435;53.292;6.000;2022-11-30T04:44:58;4.60;85.90
56538;DHT22;42435;53.292;6.000;2022-11-30T04:47:23;4.60;85.90
56538;DHT22;42435;53.292;6.000;2022-11-30T04:49:49;4.60;86.00
56538;DHT22;42435;53.292;6.000;2022-11-30T04:52:15;4.60;86.00
56538;DHT22;42435;53.292;6.000;2022-11-30T04:54:40;4.70;86.10
56538;DHT22;42435;53.292;6.000;2022-11-30T04:57:06;4.80;86.20
56538;DHT22;42435;53.292;6.000;2022-11-30T04:59:31;4.80;86.20
56538;DHT22;42435;53.292;6.000;2022-11-30T05:01:57;4.80;86.20
56538;DHT22;42435;53.292;6.000;2022-11-30T05:04:23;4.90;86.20
56538;DHT22;42435;53.292;6.000;2022-11-30T05:06:48;4.90;86.20
56538;DHT22;42435;53.292;6.000;2022-11-30T05:09:14;4.90;86.20
56538;DHT22;42435;53.292;6.000;2022-11-30T05:11:39;5.00;86.20
56538;DHT22;42435;53.292;6.000;2022-11-30T05:14:05;5.10;86.20
56538;DHT22;42435;53.292;6.000;2022-11-30T05:16:30;5.10;86.20
56538;DHT22;42435;53.292;6.000;2022-11-30T05:18:56;5.20;86.20
56538;DHT22;42435;53.292;6.000;2022-11-30T05:21:21;5.20;86.10
56538;DHT22;42435;53.292;6.000;2022-11-30T05:23:47;5.30;86.10
56538;DHT22;42435;53.292;6.000;2022-11-30T05:26:14;5.30;86.10
56538;DHT22;42435;53.292;6.000;2022-11-30T05:28:39;5.40;86.00
56538;DHT22;42435;53.292;6.000;2022-11-30T05:31:05;5.40;86.00
56538;DHT22;42435;53.292;6.000;2022-11-30T05:33:31;5.40;86.00
56538;DHT22;42435;53.292;6.000;2022-11-30T05:35:57;5.50;85.90
56538;DHT22;42435;53.292;6.000;2022-11-30T05:38:22;5.40;85.80
56538;DHT22;42435;53.292;6.000;2022-11-30T05:40:48;5.50;85.80
56538;DHT22;42435;53.292;6.000;2022-11-30T05:43:14;5.50;85.70
56538;DHT22;42435;53.292;6.000;2022-11-30T05:45:39;5.50;85.70
56538;DHT22;42435;53.292;6.000;2022-11-30T05:48:05;5.50;85.70
56538;DHT22;42435;53.292;6.000;2022-11-30T05:50:31;5.60;85.70
56538;DHT22;42435;53.292;6.000;2022-11-30T05:52:57;5.60;85.60
56538;DHT22;42435;53.292;6.000;2022-11-30T05:55:26;5.60;85.50
56538;DHT22;42435;53.292;6.000;2022-11-30T05:57:52;5.60;85.50
56538;DHT22;42435;53.292;6.000;2022-11-30T06:00:19;5.60;85.50
56538;DHT22;42435;53.292;6.000;2022-11-30T06:02:45;5.70;85.50
56538;DHT22;42435;53.292;6.000;2022-11-30T06:05:10;5.70;85.50
56538;DHT22;42435;53.292;6.000;2022-11-30T06:07:39;5.70;85.50
56538;DHT22;42435;53.292;6.000;2022-11-30T06:10:05;5.70;85.60
56538;DHT22;42435;53.292;6.000;2022-11-30T06:12:31;5.80;85.60
56538;DHT22;42435;53.292;6.000;2022-11-30T06:14:57;5.80;85.60
56538;DHT22;42435;53.292;6.000;2022-11-30T06:17:22;5.90;85.60
56538;DHT22;42435;53.292;6.000;2022-11-30T06:19:48;5.90;85.60
56538;DHT22;42435;53.292;6.000;2022-11-30T06:22:13;5.90;85.60
56538;DHT22;42435;53.292;6.000;2022-11-30T06:24:39;6.00;85.60
56538;DHT22;42435;53.292;6.000;2022-11-30T06:27:04;6.00;85.50
56538;DHT22;42435;53.292;6.000;2022-11-30T06:29:30;6.00;85.60
56538;DHT22;42435;53.292;6.000;2022-11-30T06:31:56;6.10;85.50
56538;DHT22;42435;53.292;6.000;2022-11-30T06:34:21;6.10;85.50
56538;DHT22;42435;53.292;6.000;2022-11-30T06:36:47;6.10;85.50
56538;DHT22;42435;53.292;6.000;2022-11-30T06:39:12;6.20;85.40
56538;DHT22;42435;53.292;6.000;2022-11-30T06:41:38;6.20;85.40
56538;DHT22;42435;53.292;6.000;2022-11-30T06:44:10;6.20;85.40
56538;DHT22;42435;53.292;6.000;2022-11-30T06:46:36;6.20;85.40
56538;DHT22;42435;53.292;6.000;2022-11-30T06:49:01;6.30;85.50
56538;DHT22;42435;53.292;6.000;2022-11-30T06:51:27;6.30;85.50
56538;DHT22;42435;53.292;6.000;2022-11-30T06:53:52;6.40;85.50
56538;DHT22;42435;53.292;6.000;2022-11-30T06:56:18;6.40;85.50
56538;DHT22;42435;53.292;6.000;2022-11-30T06:58:43;6.40;85.50
56538;DHT22;42435;53.292;6.000;2022-11-30T07:01:11;6.50;85.50
56538;DHT22;42435;53.292;6.000;2022-11-30T07:03:37;6.50;85.50
56538;DHT22;42435;53.292;6.000;2022-11-30T07:06:13;6.50;85.50
56538;DHT22;42435;53.292;6.000;2022-11-30T07:08:39;6.60;85.50
56538;DHT22;42435;53.292;6.000;2022-11-30T07:11:06;6.70;85.40
56538;DHT22;42435;53.292;6.000;2022-11-30T07:13:32;6.60;85.30
56538;DHT22;42435;53.292;6.000;2022-11-30T07:15:58;6.60;85.30
56538;DHT22;42435;53.292;6.000;2022-11-30T07:18:23;6.70;85.30
56538;DHT22;42435;53.292;6.000;2022-11-30T07:20:49;6.70;85.40
56538;DHT22;42435;53.292;6.000;2022-11-30T07:23:14;6.70;85.40
56538;DHT22;42435;53.292;6.000;2022-11-30T07:26:00;6.70;85.40
56538;DHT22;42435;53.292;6.000;2022-11-30T07:28:37;6.70;85.40
56538;DHT22;42435;53.292;6.000;2022-11-30T07:31:20;6.70;85.40
56538;DHT22;42435;53.292;6.000;2022-11-30T07:33:47;6.70;85.20
56538;DHT22;42435;53.292;6.000;2022-11-30T07:36:13;6.70;85.10
56538;DHT22;42435;53.292;6.000;2022-11-30T07:38:39;6.70;85.10
56538;DHT22;42435;53.292;6.000;2022-11-30T07:41:05;6.60;85.00
56538;DHT22;42435;53.292;6.000;2022-11-30T07:43:31;6.60;85.00
56538;DHT22;42435;53.292;6.000;2022-11-30T07:45:57;6.50;85.10
56538;DHT22;42435;53.292;6.000;2022-11-30T07:48:23;6.50;85.10
56538;DHT22;42435;53.292;6.000;2022-11-30T07:50:49;6.40;85.10
56538;DHT22;42435;53.292;6.000;2022-11-30T07:53:15;6.50;85.20
56538;DHT22;42435;53.292;6.000;2022-11-30T07:55:41;6.40;85.30
56538;DHT22;42435;53.292;6.000;2022-11-30T07:58:08;6.40;85.40
56538;DHT22;42435;53.292;6.000;2022-11-30T08:00:38;6.40;85.50
56538;DHT22;42435;53.292;6.000;2022-11-30T08:03:04;6.40;85.60
56538;DHT22;42435;53.292;6.000;2022-11-30T08:05:30;6.30;85.60
56538;DHT22;42435;53.292;6.000;2022-11-30T08:07:55;6.40;85.70
56538;DHT22;42435;53.292;6.000;2022-11-30T08:10:22;6.40;85.80
56538;DHT22;42435;53.292;6.000;2022-11-30T08:12:48;6.40;85.80
56538;DHT22;42435;53.292;6.000;2022-11-30T08:15:14;6.40;85.70
56538;DHT22;42435;53.292;6.000;2022-11-30T08:17:40;6.40;85.70
56538;DHT22;42435;53.292;6.000;2022-11-30T08:20:07;6.40;85.70
56538;DHT22;42435;53.292;6.000;2022-11-30T08:22:33;6.40;85.80
56538;DHT22;42435;53.292;6.000;2022-11-30T08:24:59;6.40;85.80
56538;DHT22;42435;53.292;6.000;2022-11-30T08:27:25;6.50;85.90
56538;DHT22;42435;53.292;6.000;2022-11-30T08:29:51;6.50;85.90
56538;DHT22;42435;53.292;6.000;2022-11-30T08:32:17;6.50;86.00
56538;DHT22;42435;53.292;6.000;2022-11-30T08:34:42;6.50;86.10
56538;DHT22;42435;53.292;6.000;2022-11-30T08:37:08;6.60;86.10
56538;DHT22;42435;53.292;6.000;2022-11-30T08:39:34;6.70;86.10
56538;DHT22;42435;53.292;6.000;2022-11-30T08:42:00;6.70;86.10
56538;DHT22;42435;53.292;6.000;2022-11-30T08:44:27;6.70;86.10
56538;DHT22;42435;53.292;6.000;2022-11-30T08:46:53;6.80;86.20
56538;DHT22;42435;53.292;6.000;2022-11-30T08:49:19;6.90;86.10
56538;DHT22;42435;53.292;6.000;2022-11-30T08:51:46;6.90;86.10
56538;DHT22;42435;53.292;6.000;2022-11-30T08:54:11;7.00;86.10
56538;DHT22;42435;53.292;6.000;2022-11-30T08:56:37;7.00;86.10
56538;DHT22;42435;53.292;6.000;2022-11-30T08:59:02;7.10;86.00
56538;DHT22;42435;53.292;6.000;2022-11-30T09:01:28;7.10;86.00
56538;DHT22;42435;53.292;6.000;2022-11-30T09:03:55;7.10;85.90
56538;DHT22;42435;53.292;6.000;2022-11-30T09:06:24;7.20;85.90
56538;DHT22;42435;53.292;6.000;2022-11-30T09:08:51;7.20;85.90
56538;DHT22;42435;53.292;6.000;2022-11-30T09:11:30;7.20;85.80
56538;DHT22;42435;53.292;6.000;2022-11-30T09:14:01;7.30;85.70
56538;DHT22;42435;53.292;6.000;2022-11-30T09:16:28;7.30;85.60
56538;DHT22;42435;53.292;6.000;2022-11-30T09:18:54;7.30;85.60
56538;DHT22;42435;53.292;6.000;2022-11-30T09:21:21;7.30;85.60
56538;DHT22;42435;53.292;6.000;2022-11-30T09:23:48;7.30;85.60
56538;DHT22;42435;53.292;6.000;2022-11-30T09:26:15;7.40;85.60
56538;DHT22;42435;53.292;6.000;2022-11-30T09:28:43;7.40;85.50
56538;DHT22;42435;53.292;6.000;2022-11-30T09:31:15;7.40;85.40
56538;DHT22;42435;53.292;6.000;2022-11-30T09:33:41;7.40;85.30
56538;DHT22;42435;53.292;6.000;2022-11-30T09:36:12;7.50;85.30
56538;DHT22;42435;53.292;6.000;2022-11-30T09:38:38;7.50;85.30
56538;DHT22;42435;53.292;6.000;2022-11-30T09:44:09;7.50;85.30
56538;DHT22;42435;53.292;6.000;2022-11-30T09:49:38;7.50;85.30
56538;DHT22;42435;53.292;6.000;2022-11-30T09:52:09;7.60;85.20
56538;DHT22;42435;53.292;6.000;2022-11-30T09:54:41;7.60;85.20
56538;DHT22;42435;53.292;6.000;2022-11-30T09:59:47;7.60;85.10
56538;DHT22;42435;53.292;6.000;2022-11-30T10:02:16;7.60;85.10
56538;DHT22;42435;53.292;6.000;2022-11-30T10:04:42;7.70;85.20
56538;DHT22;42435;53.292;6.000;2022-11-30T10:08:04;7.70;85.20
56538;DHT22;42435;53.292;6.000;2022-11-30T10:16:24;7.80;85.20
56538;DHT22;42435;53.292;6.000;2022-11-30T10:26:54;7.90;85.20
56538;DHT22;42435;53.292;6.000;2022-11-30T10:29:29;8.00;85.10
56538;DHT22;42435;53.292;6.000;2022-11-30T10:32:00;8.00;85.20
56538;DHT22;42435;53.292;6.000;2022-11-30T10:34:34;8.10;85.10
56538;DHT22;42435;53.292;6.000;2022-11-30T10:39:46;8.20;85.10
56538;DHT22;42435;53.292;6.000;2022-11-30T10:42:20;8.30;85.10
56538;DHT22;42435;53.292;6.000;2022-11-30T10:45:06;8.30;85.00
56538;DHT22;42435;53.292;6.000;2022-11-30T10:47:37;8.40;84.90
56538;DHT22;42435;53.292;6.000;2022-11-30T10:50:05;8.40;84.90
56538;DHT22;42435;53.292;6.000;2022-11-30T10:52:37;8.50;84.90
56538;DHT22;42435;53.292;6.000;2022-11-30T10:55:12;8.50;84.90
56538;DHT22;42435;53.292;6.000;2022-11-30T10:57:39;8.60;84.80
56538;DHT22;42435;53.292;6.000;2022-11-30T11:00:05;8.60;84.80
56538;DHT22;42435;53.292;6.000;2022-11-30T11:02:41;8.60;84.70
56538;DHT22;42435;53.292;6.000;2022-11-30T11:05:33;8.70;84.40
56538;DHT22;42435;53.292;6.000;2022-11-30T11:08:22;8.60;84.40
56538;DHT22;42435;53.292;6.000;2022-11-30T11:10:49;8.60;84.30
56538;DHT22;42435;53.292;6.000;2022-11-30T11:13:41;8.60;84.20
56538;DHT22;42435;53.292;6.000;2022-11-30T11:16:12;8.60;84.20
56538;DHT22;42435;53.292;6.000;2022-11-30T11:18:54;8.60;84.20
56538;DHT22;42435;53.292;6.000;2022-11-30T11:21:22;8.70;84.30
56538;DHT22;42435;53.292;6.000;2022-11-30T11:23:50;8.60;84.20
56538;DHT22;42435;53.292;6.000;2022-11-30T11:26:19;8.70;84.20
56538;DHT22;42435;53.292;6.000;2022-11-30T11:28:47;8.60;84.20
56538;DHT22;42435;53.292;6.000;2022-11-30T11:31:52;8.60;84.30
56538;DHT22;42435;53.292;6.000;2022-11-30T11:34:23;8.60;84.30
56538;DHT22;42435;53.292;6.000;2022-11-30T11:42:26;8.50;84.00
56538;DHT22;42435;53.292;6.000;2022-11-30T11:44:55;8.50;84.00
56538;DHT22;42435;53.292;6.000;2022-11-30T11:47:27;8.50;84.00
56538;DHT22;42435;53.292;6.000;2022-11-30T11:52:36;8.60;84.30
56538;DHT22;42435;53.292;6.000;2022-11-30T11:55:04;8.60;84.20
56538;DHT22;42435;53.292;6.000;2022-11-30T11:57:43;8.60;84.20
56538;DHT22;42435;53.292;6.000;2022-11-30T12:00:15;8.60;84.30
56538;DHT22;42435;53.292;6.000;2022-11-30T12:02:52;8.60;84.20
56538;DHT22;42435;53.292;6.000;2022-11-30T12:05:28;8.60;84.20
56538;DHT22;42435;53.292;6.000;2022-11-30T12:08:03;8.60;84.20
56538;DHT22;42435;53.292;6.000;2022-11-30T12:10:41;8.60;84.20
56538;DHT22;42435;53.292;6.000;2022-11-30T12:13:20;8.70;84.20
56538;DHT22;42435;53.292;6.000;2022-11-30T12:16:18;8.70;84.10
56538;DHT22;42435;53.292;6.000;2022-11-30T12:19:12;8.60;84.10
56538;DHT22;42435;53.292;6.000;2022-11-30T12:21:50;8.60;84.20
56538;DHT22;42435;53.292;6.000;2022-11-30T12:24:38;8.60;84.10
56538;DHT22;42435;53.292;6.000;2022-11-30T12:27:21;8.60;84.20
56538;DHT22;42435;53.292;6.000;2022-11-30T12:30:20;8.60;84.10
56538;DHT22;42435;53.292;6.000;2022-11-30T12:35:35;8.50;83.70
56538;DHT22;42435;53.292;6.000;2022-11-30T12:40:53;8.40;83.70
56538;DHT22;42435;53.292;6.000;2022-11-30T12:43:44;8.40;83.70
56538;DHT22;42435;53.292;6.000;2022-11-30T12:46:33;8.40;83.60
56538;DHT22;42435;53.292;6.000;2022-11-30T12:55:14;8.40;83.60
56538;DHT22;42435;53.292;6.000;2022-11-30T13:01:16;8.40;83.70
56538;DHT22;42435;53.292;6.000;2022-11-30T13:06:18;8.40;83.50
56538;DHT22;42435;53.292;6.000;2022-11-30T13:09:09;8.40;83.50
56538;DHT22;42435;53.292;6.000;2022-11-30T13:11:45;8.40;83.60
56538;DHT22;42435;53.292;6.000;2022-11-30T13:14:16;8.40;83.70
56538;DHT22;42435;53.292;6.000;2022-11-30T13:16:43;8.40;83.70
56538;DHT22;42435;53.292;6.000;2022-11-30T13:19:22;8.40;83.70
56538;DHT22;42435;53.292;6.000;2022-11-30T13:21:58;8.40;83.70
56538;DHT22;42435;53.292;6.000;2022-11-30T13:24:38;8.40;83.70
56538;DHT22;42435;53.292;6.000;2022-11-30T13:27:09;8.40;83.70
56538;DHT22;42435;53.292;6.000;2022-11-30T13:29:58;8.40;83.70
56538;DHT22;42435;53.292;6.000;2022-11-30T13:32:28;8.40;83.60
56538;DHT22;42435;53.292;6.000;2022-11-30T13:38:02;8.40;83.60
56538;DHT22;42435;53.292;6.000;2022-11-30T13:40:28;8.40;83.70
56538;DHT22;42435;53.292;6.000;2022-11-30T13:42:54;8.40;83.70
56538;DHT22;42435;53.292;6.000;2022-11-30T13:45:41;8.40;83.70
56538;DHT22;42435;53.292;6.000;2022-11-30T13:48:36;8.40;83.70
56538;DHT22;42435;53.292;6.000;2022-11-30T13:51:03;8.40;83.70
56538;DHT22;42435;53.292;6.000;2022-11-30T13:53:33;8.40;83.60
56538;DHT22;42435;53.292;6.000;2022-11-30T13:56:31;8.40;83.70
56538;DHT22;42435;53.292;6.000;2022-11-30T14:02:16;8.30;83.60
56538;DHT22;42435;53.292;6.000;2022-11-30T14:04:43;8.30;83.60
56538;DHT22;42435;53.292;6.000;2022-11-30T14:07:33;8.30;83.70
56538;DHT22;42435;53.292;6.000;2022-11-30T14:09:59;8.30;83.70
56538;DHT22;42435;53.292;6.000;2022-11-30T14:15:24;8.30;83.60
56538;DHT22;42435;53.292;6.000;2022-11-30T14:17:48;8.30;83.60
56538;DHT22;42435;53.292;6.000;2022-11-30T14:20:16;8.20;83.60
56538;DHT22;42435;53.292;6.000;2022-11-30T14:22:44;8.20;83.50
56538;DHT22;42435;53.292;6.000;2022-11-30T14:25:18;8.20;83.50
56538;DHT22;42435;53.292;6.000;2022-11-30T14:27:44;8.10;83.60
56538;DHT22;42435;53.292;6.000;2022-11-30T14:30:20;8.20;83.60
56538;DHT22;42435;53.292;6.000;2022-11-30T14:32:51;8.20;83.60
56538;DHT22;42435;53.292;6.000;2022-11-30T14:35:20;8.10;83.60
56538;DHT22;42435;53.292;6.000;2022-11-30T14:37:52;8.10;83.70
56538;DHT22;42435;53.292;6.000;2022-11-30T14:40:21;8.10;83.80
56538;DHT22;42435;53.292;6.000;2022-11-30T14:42:58;8.00;83.70
56538;DHT22;42435;53.292;6.000;2022-11-30T14:45:29;8.10;83.80
56538;DHT22;42435;53.292;6.000;2022-11-30T14:48:11;8.00;83.80
56538;DHT22;42435;53.292;6.000;2022-11-30T14:50:45;8.00;83.80
56538;DHT22;42435;53.292;6.000;2022-11-30T14:54:04;8.10;83.80
56538;DHT22;42435;53.292;6.000;2022-11-30T14:56:44;8.00;83.70
56538;DHT22;42435;53.292;6.000;2022-11-30T15:02:03;8.00;83.70
56538;DHT22;42435;53.292;6.000;2022-11-30T15:04:30;8.00;83.60
56538;DHT22;42435;53.292;6.000;2022-11-30T15:06:57;8.00;83.70
56538;DHT22;42435;53.292;6.000;2022-11-30T15:09:27;8.00;83.70
56538;DHT22;42435;53.292;6.000;2022-11-30T15:11:55;8.00;83.60
56538;DHT22;42435;53.292;6.000;2022-11-30T15:14:21;8.00;83.70
56538;DHT22;42435;53.292;6.000;2022-11-30T15:16:51;8.00;83.80
56538;DHT22;42435;53.292;6.000;2022-11-30T15:19:22;8.00;83.70
56538;DHT22;42435;53.292;6.000;2022-11-30T15:21:49;8.00;83.60
56538;DHT22;42435;53.292;6.000;2022-11-30T15:24:15;8.00;83.70
56538;DHT22;42435;53.292;6.000;2022-11-30T15:26:47;7.90;83.70
56538;DHT22;42435;53.292;6.000;2022-11-30T15:29:26;7.90;83.80
56538;DHT22;42435;53.292;6.000;2022-11-30T15:31:54;7.90;83.80
56538;DHT22;42435;53.292;6.000;2022-11-30T15:36:52;7.90;83.80
56538;DHT22;42435;53.292;6.000;2022-11-30T15:39:21;7.90;83.80
56538;DHT22;42435;53.292;6.000;2022-11-30T15:41:58;7.90;83.90
56538;DHT22;42435;53.292;6.000;2022-11-30T15:44:37;7.80;84.00
56538;DHT22;42435;53.292;6.000;2022-11-30T15:47:26;7.90;84.00
56538;DHT22;42435;53.292;6.000;2022-11-30T15:49:56;7.80;84.00
56538;DHT22;42435;53.292;6.000;2022-11-30T15:52:26;7.80;83.90
56538;DHT22;42435;53.292;6.000;2022-11-30T15:54:57;7.80;84.00
56538;DHT22;42435;53.292;6.000;2022-11-30T15:57:55;7.70;84.00
56538;DHT22;42435;53.292;6.000;2022-11-30T16:00:19;7.70;84.00
56538;DHT22;42435;53.292;6.000;2022-11-30T16:02:45;7.70;83.90
56538;DHT22;42435;53.292;6.000;2022-11-30T16:07:52;7.80;84.10
56538;DHT22;42435;53.292;6.000;2022-11-30T16:10:25;7.70;84.20
56538;DHT22;42435;53.292;6.000;2022-11-30T16:12:52;7.70;84.20
56538;DHT22;42435;53.292;6.000;2022-11-30T16:15:29;7.80;84.20
56538;DHT22;42435;53.292;6.000;2022-11-30T16:18:19;7.80;84.30
56538;DHT22;42435;53.292;6.000;2022-11-30T16:20:52;7.80;84.20
56538;DHT22;42435;53.292;6.000;2022-11-30T16:23:18;7.80;84.10
56538;DHT22;42435;53.292;6.000;2022-11-30T16:25:45;7.70;84.10
56538;DHT22;42435;53.292;6.000;2022-11-30T16:28:13;7.70;84.20
56538;DHT22;42435;53.292;6.000;2022-11-30T16:30:40;7.70;84.30
56538;DHT22;42435;53.292;6.000;2022-11-30T16:33:15;7.70;84.30
56538;DHT22;42435;53.292;6.000;2022-11-30T16:38:14;7.70;84.40
56538;DHT22;42435;53.292;6.000;2022-11-30T16:40:40;7.70;84.30
56538;DHT22;42435;53.292;6.000;2022-11-30T16:43:05;7.70;84.40
56538;DHT22;42435;53.292;6.000;2022-11-30T16:45:35;7.70;84.30
56538;DHT22;42435;53.292;6.000;2022-11-30T16:48:02;7.70;84.30
56538;DHT22;42435;53.292;6.000;2022-11-30T16:50:28;7.70;84.40
56538;DHT22;42435;53.292;6.000;2022-11-30T16:52:54;7.70;84.40
56538;DHT22;42435;53.292;6.000;2022-11-30T16:55:21;7.70;84.50
56538;DHT22;42435;53.292;6.000;2022-11-30T16:57:48;7.70;84.50
56538;DHT22;42435;53.292;6.000;2022-11-30T17:00:16;7.70;84.40
56538;DHT22;42435;53.292;6.000;2022-11-30T17:02:47;7.70;84.40
56538;DHT22;42435;53.292;6.000;2022-11-30T17:05:14;7.70;84.40
56538;DHT22;42435;53.292;6.000;2022-11-30T17:07:40;7.70;84.40
56538;DHT22;42435;53.292;6.000;2022-11-30T17:10:06;7.70;84.40
56538;DHT22;42435;53.292;6.000;2022-11-30T17:12:32;7.70;84.40
56538;DHT22;42435;53.292;6.000;2022-11-30T17:15:00;7.80;84.50
56538;DHT22;42435;53.292;6.000;2022-11-30T17:17:25;7.70;84.50
56538;DHT22;42435;53.292;6.000;2022-11-30T17:19:51;7.80;84.40
56538;DHT22;42435;53.292;6.000;2022-11-30T17:22:16;7.80;84.40
56538;DHT22;42435;53.292;6.000;2022-11-30T17:24:42;7.70;84.40